sensor_id;sensor_type;location;lat;lon;timestamp;pressure;altitude;pressure_sealevel;temperature;humidity
6680;BME280;3376;42.664;23.346;2023-07-13T00:00:09;94802.44;;;22.70;89.42
6680;BME280;3376;42.664;23.346;2023-07-13T00:02:36;94822.69;;;22.81;89.48
6680;BME280;3376;42.664;23.346;2023-07-13T00:05:03;94815.34;;;22.66;88.03
6680;BME280;3376;42.664;23.346;2023-07-13T00:07:30;94826.09;;;22.60;88.96
6680;BME280;3376;42.664;23.346;2023-07-13T00:09:59;94818.41;;;22.58;91.10
6680;BME280;3376;42.664;23.346;2023-07-13T00:12:31;94817.59;;;22.58;90.86
6680;BME280;3376;42.664;23.346;2023-07-13T00:14:59;94711.69;;;21.88;91.31
6680;BME280;3376;42.664;23.346;2023-07-13T00:17:27;94789.66;;;22.45;91.51
6680;BME280;3376;42.664;23.346;2023-07-13T00:19:55;94808.56;;;22.54;91.62
6680;BME280;3376;42.664;23.346;2023-07-13T00:22:24;94814.53;;;22.49;91.69
6680;BME280;3376;42.664;23.346;2023-07-13T00:24:52;94713.47;;;21.82;94.04
6680;BME280;3376;42.664;23.346;2023-07-13T00:27:23;94737.63;;;22.07;92.14
6680;BME280;3376;42.664;23.346;2023-07-13T00:29:52;94804.72;;;22.61;89.41
6680;BME280;3376;42.664;23.346;2023-07-13T00:32:19;94795.13;;;22.55;89.50
6680;BME280;3376;42.664;23.346;2023-07-13T00:34:46;94802.88;;;22.62;90.26
6680;BME280;3376;42.664;23.346;2023-07-13T00:37:12;94801.28;;;22.61;91.38
6680;BME280;3376;42.664;23.346;2023-07-13T00:39:39;94797.91;;;22.49;90.90
6680;BME280;3376;42.664;23.346;2023-07-13T00:42:06;94787.81;;;22.46;91.42
6680;BME280;3376;42.664;23.346;2023-07-13T00:44:34;94808.94;;;22.46;91.09
6680;BME280;3376;42.664;23.346;2023-07-13T00:47:01;94803.66;;;22.46;92.53
6680;BME280;3376;42.664;23.346;2023-07-13T00:49:30;94792.63;;;22.49;92.53
6680;BME280;3376;42.664;23.346;2023-07-13T00:52:00;94811.03;;;22.44;92.79
6680;BME280;3376;42.664;23.346;2023-07-13T00:54:32;94788.88;;;22.28;94.35
6680;BME280;3376;42.664;23.346;2023-07-13T00:57:02;94796.00;;;22.28;94.43
6680;BME280;3376;42.664;23.346;2023-07-13T00:59:30;94785.44;;;22.28;93.97
6680;BME280;3376;42.664;23.346;2023-07-13T01:01:59;94792.78;;;22.26;94.62
6680;BME280;3376;42.664;23.346;2023-07-13T01:04:26;94792.72;;;22.21;95.29
6680;BME280;3376;42.664;23.346;2023-07-13T01:06:53;94792.63;;;22.15;95.99
6680;BME280;3376;42.664;23.346;2023-07-13T01:09:20;94790.88;;;22.21;95.27
6680;BME280;3376;42.664;23.346;2023-07-13T01:11:47;94765.34;;;22.10;95.58
6680;BME280;3376;42.664;23.346;2023-07-13T01:14:15;94781.25;;;22.15;95.57
6680;BME280;3376;42.664;23.346;2023-07-13T01:16:44;94782.47;;;22.07;96.54
6680;BME280;3376;42.664;23.346;2023-07-13T01:19:22;94779.53;;;22.04;96.62
6680;BME280;3376;42.664;23.346;2023-07-13T01:22:03;94791.34;;;22.01;96.44
6680;BME280;3376;42.664;23.346;2023-07-13T01:24:30;94680.53;;;21.24;96.91
6680;BME280;3376;42.664;23.346;2023-07-13T01:26:56;94749.53;;;21.65;97.25
6680;BME280;3376;42.664;23.346;2023-07-13T01:29:24;94781.47;;;21.80;97.53
6680;BME280;3376;42.664;23.346;2023-07-13T01:31:50;94791.47;;;21.78;97.71
6680;BME280;3376;42.664;23.346;2023-07-13T01:34:17;94790.56;;;21.73;98.27
6680;BME280;3376;42.664;23.346;2023-07-13T01:36:44;94781.66;;;21.62;99.36
6680;BME280;3376;42.664;23.346;2023-07-13T01:39:12;94790.47;;;21.68;99.24
6680;BME280;3376;42.664;23.346;2023-07-13T01:41:40;94787.59;;;21.69;99.10
6680;BME280;3376;42.664;23.346;2023-07-13T01:44:06;94785.97;;;21.80;99.13
6680;BME280;3376;42.664;23.346;2023-07-13T01:46:33;94790.53;;;21.84;99.64
6680;BME280;3376;42.664;23.346;2023-07-13T01:49:00;94772.22;;;21.78;97.96
6680;BME280;3376;42.664;23.346;2023-07-13T01:51:27;94765.19;;;21.72;92.44
6680;BME280;3376;42.664;23.346;2023-07-13T01:53:54;94780.69;;;21.80;91.15
6680;BME280;3376;42.664;23.346;2023-07-13T01:56:22;94776.59;;;21.89;89.98
6680;BME280;3376;42.664;23.346;2023-07-13T01:58:49;94779.66;;;21.97;90.15
6680;BME280;3376;42.664;23.346;2023-07-13T02:01:16;94780.47;;;21.98;92.10
6680;BME280;3376;42.664;23.346;2023-07-13T02:03:42;94782.84;;;21.99;92.35
6680;BME280;3376;42.664;23.346;2023-07-13T02:06:09;94786.53;;;21.98;95.08
6680;BME280;3376;42.664;23.346;2023-07-13T02:08:37;94765.09;;;21.78;97.87
6680;BME280;3376;42.664;23.346;2023-07-13T02:11:04;94782.84;;;21.83;99.00
6680;BME280;3376;42.664;23.346;2023-07-13T02:13:32;94782.59;;;21.84;99.13
6680;BME280;3376;42.664;23.346;2023-07-13T02:15:58;94785.41;;;21.78;99.87
6680;BME280;3376;42.664;23.346;2023-07-13T02:18:25;94789.28;;;21.75;99.79
6680;BME280;3376;42.664;23.346;2023-07-13T02:20:52;94774.94;;;21.55;100.00
6680;BME280;3376;42.664;23.346;2023-07-13T02:23:19;94793.34;;;21.66;98.62
6680;BME280;3376;42.664;23.346;2023-07-13T02:25:46;94781.00;;;21.55;98.83
6680;BME280;3376;42.664;23.346;2023-07-13T02:28:13;94792.50;;;21.77;97.87
6680;BME280;3376;42.664;23.346;2023-07-13T02:30:41;94791.00;;;21.81;99.75
6680;BME280;3376;42.664;23.346;2023-07-13T02:33:07;94794.94;;;21.67;100.00
6680;BME280;3376;42.664;23.346;2023-07-13T02:35:34;94802.66;;;21.57;100.00
6680;BME280;3376;42.664;23.346;2023-07-13T02:38:01;94800.19;;;21.51;100.00
6680;BME280;3376;42.664;23.346;2023-07-13T02:40:28;94798.31;;;21.51;100.00
6680;BME280;3376;42.664;23.346;2023-07-13T02:42:54;94797.13;;;21.42;100.00
6680;BME280;3376;42.664;23.346;2023-07-13T02:45:21;94801.50;;;21.37;100.00
6680;BME280;3376;42.664;23.346;2023-07-13T02:47:49;94786.06;;;21.29;100.00
6680;BME280;3376;42.664;23.346;2023-07-13T02:50:16;94800.44;;;21.38;100.00
6680;BME280;3376;42.664;23.346;2023-07-13T02:52:43;94783.63;;;21.27;100.00
6680;BME280;3376;42.664;23.346;2023-07-13T02:55:10;94789.72;;;21.28;100.00
6680;BME280;3376;42.664;23.346;2023-07-13T02:57:37;94804.25;;;21.30;100.00
6680;BME280;3376;42.664;23.346;2023-07-13T03:00:05;94801.06;;;21.28;100.00
6680;BME280;3376;42.664;23.346;2023-07-13T03:02:32;94786.25;;;21.27;100.00
6680;BME280;3376;42.664;23.346;2023-07-13T03:05:00;94803.69;;;21.28;100.00
6680;BME280;3376;42.664;23.346;2023-07-13T03:07:27;94800.59;;;21.31;100.00
6680;BME280;3376;42.664;23.346;2023-07-13T03:09:55;94800.16;;;21.23;100.00
6680;BME280;3376;42.664;23.346;2023-07-13T03:12:22;94808.88;;;21.23;100.00
6680;BME280;3376;42.664;23.346;2023-07-13T03:14:49;94794.16;;;21.27;100.00
6680;BME280;3376;42.664;23.346;2023-07-13T03:17:16;94800.38;;;21.21;100.00
6680;BME280;3376;42.664;23.346;2023-07-13T03:19:42;94805.41;;;21.23;100.00
6680;BME280;3376;42.664;23.346;2023-07-13T03:22:11;94793.75;;;21.19;100.00
6680;BME280;3376;42.664;23.346;2023-07-13T03:24:37;94807.66;;;21.42;100.00
6680;BME280;3376;42.664;23.346;2023-07-13T03:27:05;94798.31;;;21.51;100.00
6680;BME280;3376;42.664;23.346;2023-07-13T03:29:32;94813.38;;;21.51;100.00
6680;BME280;3376;42.664;23.346;2023-07-13T03:31:59;94813.13;;;21.52;100.00
6680;BME280;3376;42.664;23.346;2023-07-13T03:34:26;94815.38;;;21.60;100.00
6680;BME280;3376;42.664;23.346;2023-07-13T03:36:54;94818.00;;;21.60;100.00
6680;BME280;3376;42.664;23.346;2023-07-13T03:39:22;94820.78;;;21.54;100.00
6680;BME280;3376;42.664;23.346;2023-07-13T03:41:49;94818.06;;;21.49;100.00
6680;BME280;3376;42.664;23.346;2023-07-13T03:44:16;94822.03;;;21.63;100.00
6680;BME280;3376;42.664;23.346;2023-07-13T03:46:43;94821.97;;;21.74;100.00
6680;BME280;3376;42.664;23.346;2023-07-13T03:49:10;94814.84;;;21.86;100.00
6680;BME280;3376;42.664;23.346;2023-07-13T03:51:37;94816.50;;;21.92;100.00
6680;BME280;3376;42.664;23.346;2023-07-13T03:54:04;94815.72;;;21.92;100.00
6680;BME280;3376;42.664;23.346;2023-07-13T03:56:32;94809.72;;;21.96;100.00
6680;BME280;3376;42.664;23.346;2023-07-13T03:58:59;94814.06;;;22.02;100.00
6680;BME280;3376;42.664;23.346;2023-07-13T04:01:26;94810.69;;;22.07;100.00
6680;BME280;3376;42.664;23.346;2023-07-13T04:03:53;94814.22;;;22.12;100.00
6680;BME280;3376;42.664;23.346;2023-07-13T04:06:22;94820.59;;;22.16;100.00
6680;BME280;3376;42.664;23.346;2023-07-13T04:08:50;94815.28;;;22.28;100.00
6680;BME280;3376;42.664;23.346;2023-07-13T04:11:18;94804.56;;;22.35;99.87
6680;BME280;3376;42.664;23.346;2023-07-13T04:13:46;94812.56;;;22.56;98.21
6680;BME280;3376;42.664;23.346;2023-07-13T04:16:13;94809.75;;;22.63;97.84
6680;BME280;3376;42.664;23.346;2023-07-13T04:18:40;94823.13;;;22.73;98.21
6680;BME280;3376;42.664;23.346;2023-07-13T04:21:08;94806.00;;;22.59;98.25
6680;BME280;3376;42.664;23.346;2023-07-13T04:23:35;94827.91;;;22.76;98.48
6680;BME280;3376;42.664;23.346;2023-07-13T04:26:02;94837.50;;;22.82;98.16
6680;BME280;3376;42.664;23.346;2023-07-13T04:28:30;94834.84;;;22.82;98.40
6680;BME280;3376;42.664;23.346;2023-07-13T04:30:58;94842.97;;;22.97;98.09
6680;BME280;3376;42.664;23.346;2023-07-13T04:33:25;94833.34;;;23.07;95.83
6680;BME280;3376;42.664;23.346;2023-07-13T04:35:54;94831.16;;;23.21;95.18
6680;BME280;3376;42.664;23.346;2023-07-13T04:38:21;94838.25;;;23.37;94.15
6680;BME280;3376;42.664;23.346;2023-07-13T04:40:50;94842.63;;;23.48;93.73
6680;BME280;3376;42.664;23.346;2023-07-13T04:43:17;94844.66;;;23.63;93.28
6680;BME280;3376;42.664;23.346;2023-07-13T04:45:43;94839.19;;;23.74;91.36
6680;BME280;3376;42.664;23.346;2023-07-13T04:48:11;94845.16;;;23.86;91.35
6680;BME280;3376;42.664;23.346;2023-07-13T04:50:38;94842.94;;;24.00;90.74
6680;BME280;3376;42.664;23.346;2023-07-13T04:53:05;94856.34;;;24.15;90.10
6680;BME280;3376;42.664;23.346;2023-07-13T04:55:32;94851.69;;;24.27;87.85
6680;BME280;3376;42.664;23.346;2023-07-13T04:57:59;94867.41;;;24.38;87.93
6680;BME280;3376;42.664;23.346;2023-07-13T05:00:26;94867.69;;;24.42;87.51
6680;BME280;3376;42.664;23.346;2023-07-13T05:02:54;94857.38;;;24.40;86.51
6680;BME280;3376;42.664;23.346;2023-07-13T05:05:22;94868.38;;;24.59;86.02
6680;BME280;3376;42.664;23.346;2023-07-13T05:07:49;94868.25;;;24.76;84.37
6680;BME280;3376;42.664;23.346;2023-07-13T05:10:16;94868.09;;;24.92;83.34
6680;BME280;3376;42.664;23.346;2023-07-13T05:12:43;94872.13;;;25.00;82.79
6680;BME280;3376;42.664;23.346;2023-07-13T05:15:10;94865.53;;;25.02;82.45
6680;BME280;3376;42.664;23.346;2023-07-13T05:17:37;94871.44;;;25.14;82.33
6680;BME280;3376;42.664;23.346;2023-07-13T05:20:06;94882.72;;;25.36;78.45
6680;BME280;3376;42.664;23.346;2023-07-13T05:22:34;94885.66;;;25.40;78.07
6680;BME280;3376;42.664;23.346;2023-07-13T05:25:01;94886.16;;;25.37;79.28
6680;BME280;3376;42.664;23.346;2023-07-13T05:27:28;94868.84;;;25.24;79.30
6680;BME280;3376;42.664;23.346;2023-07-13T05:29:55;94872.41;;;25.45;77.41
6680;BME280;3376;42.664;23.346;2023-07-13T05:32:22;94876.94;;;25.49;75.74
6680;BME280;3376;42.664;23.346;2023-07-13T05:34:48;94877.25;;;25.63;76.84
6680;BME280;3376;42.664;23.346;2023-07-13T05:37:15;94852.56;;;25.63;75.19
6680;BME280;3376;42.664;23.346;2023-07-13T05:39:44;94883.16;;;25.80;75.14
6680;BME280;3376;42.664;23.346;2023-07-13T05:42:10;94887.47;;;25.91;75.43
6680;BME280;3376;42.664;23.346;2023-07-13T05:44:37;94884.34;;;26.09;73.79
6680;BME280;3376;42.664;23.346;2023-07-13T05:47:05;94881.41;;;26.11;73.90
6680;BME280;3376;42.664;23.346;2023-07-13T05:49:31;94856.72;;;26.05;73.22
6680;BME280;3376;42.664;23.346;2023-07-13T05:51:58;94887.06;;;26.34;73.96
6680;BME280;3376;42.664;23.346;2023-07-13T05:54:26;94885.47;;;26.48;73.67
6680;BME280;3376;42.664;23.346;2023-07-13T05:56:54;94880.41;;;26.47;73.90
6680;BME280;3376;42.664;23.346;2023-07-13T05:59:21;94889.19;;;26.52;73.24
6680;BME280;3376;42.664;23.346;2023-07-13T06:01:48;94766.09;;;25.82;72.97
6680;BME280;3376;42.664;23.346;2023-07-13T06:04:15;94868.19;;;26.56;72.95
6680;BME280;3376;42.664;23.346;2023-07-13T06:06:41;94871.66;;;26.61;71.95
6680;BME280;3376;42.664;23.346;2023-07-13T06:09:08;94841.06;;;26.64;71.69
6680;BME280;3376;42.664;23.346;2023-07-13T06:11:35;94866.88;;;26.99;70.77
6680;BME280;3376;42.664;23.346;2023-07-13T06:14:03;94874.53;;;27.20;67.97
6680;BME280;3376;42.664;23.346;2023-07-13T06:16:30;94761.03;;;26.65;67.42
6680;BME280;3376;42.664;23.346;2023-07-13T06:18:57;94868.66;;;27.43;65.37
6680;BME280;3376;42.664;23.346;2023-07-13T06:21:23;94883.78;;;27.53;65.47
6680;BME280;3376;42.664;23.346;2023-07-13T06:23:51;94889.59;;;27.65;65.13
6680;BME280;3376;42.664;23.346;2023-07-13T06:26:18;94862.97;;;27.65;63.16
6680;BME280;3376;42.664;23.346;2023-07-13T06:28:45;94886.03;;;27.90;62.07
6680;BME280;3376;42.664;23.346;2023-07-13T06:31:15;94875.63;;;27.98;60.12
6680;BME280;3376;42.664;23.346;2023-07-13T06:33:42;94889.19;;;28.07;61.31
6680;BME280;3376;42.664;23.346;2023-07-13T06:36:09;94880.59;;;28.15;60.48
6680;BME280;3376;42.664;23.346;2023-07-13T06:38:36;94879.97;;;28.33;59.17
6680;BME280;3376;42.664;23.346;2023-07-13T06:41:04;94863.22;;;28.27;57.39
6680;BME280;3376;42.664;23.346;2023-07-13T06:43:31;94885.16;;;28.58;55.43
6680;BME280;3376;42.664;23.346;2023-07-13T06:45:58;94881.34;;;28.69;54.69
6680;BME280;3376;42.664;23.346;2023-07-13T06:48:26;94864.44;;;28.78;54.71
6680;BME280;3376;42.664;23.346;2023-07-13T06:50:53;94880.06;;;28.95;54.77
6680;BME280;3376;42.664;23.346;2023-07-13T06:53:20;94874.97;;;28.93;55.88
6680;BME280;3376;42.664;23.346;2023-07-13T06:55:48;94856.75;;;29.01;54.48
6680;BME280;3376;42.664;23.346;2023-07-13T06:58:15;94874.16;;;29.27;54.25
6680;BME280;3376;42.664;23.346;2023-07-13T07:00:42;94879.44;;;29.32;53.82
6680;BME280;3376;42.664;23.346;2023-07-13T07:03:09;94876.13;;;29.45;54.19
6680;BME280;3376;42.664;23.346;2023-07-13T07:05:37;94877.63;;;29.51;54.24
6680;BME280;3376;42.664;23.346;2023-07-13T07:08:04;94878.44;;;29.51;54.25
6680;BME280;3376;42.664;23.346;2023-07-13T07:10:31;94878.38;;;29.56;53.86
6680;BME280;3376;42.664;23.346;2023-07-13T07:12:58;94883.56;;;29.71;53.54
6680;BME280;3376;42.664;23.346;2023-07-13T07:15:25;94880.59;;;29.73;53.38
6680;BME280;3376;42.664;23.346;2023-07-13T07:17:52;94870.22;;;29.71;51.71
6680;BME280;3376;42.664;23.346;2023-07-13T07:20:19;94872.09;;;29.89;51.47
6680;BME280;3376;42.664;23.346;2023-07-13T07:22:48;94881.69;;;30.14;50.35
6680;BME280;3376;42.664;23.346;2023-07-13T07:25:15;94869.41;;;30.13;49.03
6680;BME280;3376;42.664;23.346;2023-07-13T07:27:42;94864.63;;;30.10;49.75
6680;BME280;3376;42.664;23.346;2023-07-13T07:30:10;94868.19;;;30.24;49.73
6680;BME280;3376;42.664;23.346;2023-07-13T07:32:37;94880.75;;;30.61;48.25
6680;BME280;3376;42.664;23.346;2023-07-13T07:35:04;94872.50;;;30.76;47.79
6680;BME280;3376;42.664;23.346;2023-07-13T07:37:31;94839.97;;;30.69;47.59
6680;BME280;3376;42.664;23.346;2023-07-13T07:39:59;94863.94;;;30.92;48.18
6680;BME280;3376;42.664;23.346;2023-07-13T07:42:26;94869.03;;;30.94;47.81
6680;BME280;3376;42.664;23.346;2023-07-13T07:44:53;94864.66;;;30.98;48.35
6680;BME280;3376;42.664;23.346;2023-07-13T07:47:19;94867.34;;;31.11;48.87
6680;BME280;3376;42.664;23.346;2023-07-13T07:49:48;94858.00;;;31.41;46.90
6680;BME280;3376;42.664;23.346;2023-07-13T07:52:15;94850.75;;;31.28;46.57
6680;BME280;3376;42.664;23.346;2023-07-13T07:54:42;94867.56;;;31.15;46.53
6680;BME280;3376;42.664;23.346;2023-07-13T07:57:10;94858.88;;;30.91;47.23
6680;BME280;3376;42.664;23.346;2023-07-13T07:59:37;94851.16;;;30.89;47.38
6680;BME280;3376;42.664;23.346;2023-07-13T08:02:04;94849.19;;;30.95;47.48
6680;BME280;3376;42.664;23.346;2023-07-13T08:04:31;94841.19;;;31.08;47.40
6680;BME280;3376;42.664;23.346;2023-07-13T08:06:58;94835.78;;;31.41;47.44
6680;BME280;3376;42.664;23.346;2023-07-13T08:09:25;94841.81;;;31.73;46.92
6680;BME280;3376;42.664;23.346;2023-07-13T08:11:52;94814.25;;;31.59;45.42
6680;BME280;3376;42.664;23.346;2023-07-13T08:14:21;94831.31;;;31.77;45.78
6680;BME280;3376;42.664;23.346;2023-07-13T08:16:48;94825.56;;;31.56;45.71
6680;BME280;3376;42.664;23.346;2023-07-13T08:19:15;94827.25;;;31.39;45.97
6680;BME280;3376;42.664;23.346;2023-07-13T08:21:41;94823.28;;;31.36;46.52
6680;BME280;3376;42.664;23.346;2023-07-13T08:24:08;94706.63;;;30.89;45.79
6680;BME280;3376;42.664;23.346;2023-07-13T08:26:35;94697.81;;;31.16;45.90
6680;BME280;3376;42.664;23.346;2023-07-13T08:29:02;94827.38;;;32.23;44.50
6680;BME280;3376;42.664;23.346;2023-07-13T08:31:30;94820.34;;;32.50;44.15
6680;BME280;3376;42.664;23.346;2023-07-13T08:33:57;94785.41;;;32.41;43.43
6680;BME280;3376;42.664;23.346;2023-07-13T08:36:25;94807.59;;;32.77;43.03
6680;BME280;3376;42.664;23.346;2023-07-13T08:38:52;94827.56;;;33.15;42.30
6680;BME280;3376;42.664;23.346;2023-07-13T08:41:18;94803.44;;;33.32;41.55
6680;BME280;3376;42.664;23.346;2023-07-13T08:43:48;94799.69;;;33.42;41.46
6680;BME280;3376;42.664;23.346;2023-07-13T08:46:19;94807.22;;;33.62;41.52
6680;BME280;3376;42.664;23.346;2023-07-13T08:48:51;94814.94;;;33.55;42.16
6680;BME280;3376;42.664;23.346;2023-07-13T08:51:28;94809.22;;;33.48;41.70
6680;BME280;3376;42.664;23.346;2023-07-13T08:53:58;94817.28;;;33.48;40.91
6680;BME280;3376;42.664;23.346;2023-07-13T08:56:29;94822.34;;;33.50;41.15
6680;BME280;3376;42.664;23.346;2023-07-13T08:58:58;94813.06;;;33.56;42.09
6680;BME280;3376;42.664;23.346;2023-07-13T09:01:31;94820.38;;;33.81;41.26
6680;BME280;3376;42.664;23.346;2023-07-13T09:04:05;94838.03;;;34.04;40.54
6680;BME280;3376;42.664;23.346;2023-07-13T09:06:44;94835.13;;;33.92;40.71
6680;BME280;3376;42.664;23.346;2023-07-13T09:09:22;94824.03;;;33.85;40.76
6680;BME280;3376;42.664;23.346;2023-07-13T09:11:56;94839.78;;;34.17;39.89
6680;BME280;3376;42.664;23.346;2023-07-13T09:14:42;94843.44;;;34.38;39.52
6680;BME280;3376;42.664;23.346;2023-07-13T09:17:15;94850.59;;;34.51;39.51
6680;BME280;3376;42.664;23.346;2023-07-13T09:19:47;94835.41;;;34.47;40.30
6680;BME280;3376;42.664;23.346;2023-07-13T09:22:18;94843.31;;;34.60;39.96
6680;BME280;3376;42.664;23.346;2023-07-13T09:25:00;94835.38;;;34.72;39.19
6680;BME280;3376;42.664;23.346;2023-07-13T09:27:31;94851.53;;;34.98;38.96
6680;BME280;3376;42.664;23.346;2023-07-13T09:30:10;94848.31;;;35.13;38.23
6680;BME280;3376;42.664;23.346;2023-07-13T09:32:47;94848.91;;;35.27;38.16
6680;BME280;3376;42.664;23.346;2023-07-13T09:35:20;94846.84;;;35.32;38.66
6680;BME280;3376;42.664;23.346;2023-07-13T09:37:48;94819.88;;;35.32;37.53
6680;BME280;3376;42.664;23.346;2023-07-13T09:40:21;94815.78;;;35.26;38.84
6680;BME280;3376;42.664;23.346;2023-07-13T09:42:51;94839.69;;;35.28;37.95
6680;BME280;3376;42.664;23.346;2023-07-13T09:45:27;94830.16;;;35.39;37.54
6680;BME280;3376;42.664;23.346;2023-07-13T09:47:59;94839.16;;;35.60;37.36
6680;BME280;3376;42.664;23.346;2023-07-13T09:50:27;94830.63;;;35.49;36.56
6680;BME280;3376;42.664;23.346;2023-07-13T09:52:55;94830.03;;;35.73;36.08
6680;BME280;3376;42.664;23.346;2023-07-13T09:55:26;94829.69;;;35.75;35.81
6680;BME280;3376;42.664;23.346;2023-07-13T09:57:53;94816.88;;;35.72;36.37
6680;BME280;3376;42.664;23.346;2023-07-13T10:00:22;94811.00;;;35.70;36.59
6680;BME280;3376;42.664;23.346;2023-07-13T10:03:02;94790.09;;;35.67;36.91
6680;BME280;3376;42.664;23.346;2023-07-13T10:05:39;94810.16;;;35.78;36.29
6680;BME280;3376;42.664;23.346;2023-07-13T10:08:16;94789.28;;;35.28;35.88
6680;BME280;3376;42.664;23.346;2023-07-13T10:10:44;94796.00;;;35.60;35.78
6680;BME280;3376;42.664;23.346;2023-07-13T10:13:25;94798.75;;;35.81;35.37
6680;BME280;3376;42.664;23.346;2023-07-13T10:15:53;94793.13;;;35.94;35.77
6680;BME280;3376;42.664;23.346;2023-07-13T10:18:21;94799.06;;;36.08;34.68
6680;BME280;3376;42.664;23.346;2023-07-13T10:20:50;94798.00;;;36.01;34.70
6680;BME280;3376;42.664;23.346;2023-07-13T10:23:26;94797.59;;;36.11;33.35
6680;BME280;3376;42.664;23.346;2023-07-13T10:25:56;94800.09;;;36.16;34.01
6680;BME280;3376;42.664;23.346;2023-07-13T10:28:28;94776.94;;;36.15;33.38
6680;BME280;3376;42.664;23.346;2023-07-13T10:30:56;94774.03;;;36.20;33.72
6680;BME280;3376;42.664;23.346;2023-07-13T10:33:25;94789.72;;;36.47;34.91
6680;BME280;3376;42.664;23.346;2023-07-13T10:35:57;94780.28;;;36.53;34.16
6680;BME280;3376;42.664;23.346;2023-07-13T10:38:28;94772.09;;;36.61;33.58
6680;BME280;3376;42.664;23.346;2023-07-13T10:40:57;94765.50;;;36.71;32.90
6680;BME280;3376;42.664;23.346;2023-07-13T10:43:27;94763.03;;;36.78;30.72
6680;BME280;3376;42.664;23.346;2023-07-13T10:45:56;94772.09;;;36.94;28.35
6680;BME280;3376;42.664;23.346;2023-07-13T10:48:23;94769.13;;;36.75;26.79
6680;BME280;3376;42.664;23.346;2023-07-13T10:50:53;94758.31;;;36.75;26.45
6680;BME280;3376;42.664;23.346;2023-07-13T10:53:29;94749.75;;;36.73;27.25
6680;BME280;3376;42.664;23.346;2023-07-13T10:55:59;94733.53;;;36.61;26.54
6680;BME280;3376;42.664;23.346;2023-07-13T10:58:33;94750.84;;;36.72;25.30
6680;BME280;3376;42.664;23.346;2023-07-13T11:01:08;94750.31;;;36.67;26.29
6680;BME280;3376;42.664;23.346;2023-07-13T11:03:36;94739.00;;;36.85;25.51
6680;BME280;3376;42.664;23.346;2023-07-13T11:06:09;94742.38;;;36.94;25.83
6680;BME280;3376;42.664;23.346;2023-07-13T11:08:38;94733.81;;;36.80;26.42
6680;BME280;3376;42.664;23.346;2023-07-13T11:11:36;94704.31;;;36.42;25.13
6680;BME280;3376;42.664;23.346;2023-07-13T11:14:04;94724.31;;;36.74;25.70
6680;BME280;3376;42.664;23.346;2023-07-13T11:16:43;94720.66;;;36.91;25.90
6680;BME280;3376;42.664;23.346;2023-07-13T11:22:24;94703.22;;;36.88;25.92
6680;BME280;3376;42.664;23.346;2023-07-13T11:25:00;94704.53;;;36.82;25.94
6680;BME280;3376;42.664;23.346;2023-07-13T11:27:41;94710.13;;;36.77;26.02
6680;BME280;3376;42.664;23.346;2023-07-13T11:32:50;94704.19;;;36.72;26.38
6680;BME280;3376;42.664;23.346;2023-07-13T11:35:22;94706.19;;;36.75;26.23
6680;BME280;3376;42.664;23.346;2023-07-13T11:37:51;94702.88;;;36.90;26.94
6680;BME280;3376;42.664;23.346;2023-07-13T11:40:19;94701.19;;;36.85;27.20
6680;BME280;3376;42.664;23.346;2023-07-13T11:42:51;94705.22;;;36.91;27.87
6680;BME280;3376;42.664;23.346;2023-07-13T11:45:19;94683.16;;;36.89;26.93
6680;BME280;3376;42.664;23.346;2023-07-13T11:47:48;94704.78;;;36.89;26.74
6680;BME280;3376;42.664;23.346;2023-07-13T11:50:20;94690.88;;;36.67;27.44
6680;BME280;3376;42.664;23.346;2023-07-13T11:52:48;94678.84;;;36.76;26.23
6680;BME280;3376;42.664;23.346;2023-07-13T11:55:18;94695.22;;;37.04;26.19
6680;BME280;3376;42.664;23.346;2023-07-13T11:57:49;94689.47;;;36.93;26.91
6680;BME280;3376;42.664;23.346;2023-07-13T12:00:21;94688.56;;;36.89;27.76
6680;BME280;3376;42.664;23.346;2023-07-13T12:02:51;94663.81;;;36.87;27.28
6680;BME280;3376;42.664;23.346;2023-07-13T12:05:20;94677.09;;;36.92;27.41
6680;BME280;3376;42.664;23.346;2023-07-13T12:07:48;94684.31;;;37.00;27.41
6680;BME280;3376;42.664;23.346;2023-07-13T12:10:22;94670.88;;;36.80;27.87
6680;BME280;3376;42.664;23.346;2023-07-13T12:12:52;94672.91;;;36.83;27.88
6680;BME280;3376;42.664;23.346;2023-07-13T12:15:19;94665.94;;;36.82;27.12
6680;BME280;3376;42.664;23.346;2023-07-13T12:17:47;94672.34;;;36.89;25.92
6680;BME280;3376;42.664;23.346;2023-07-13T12:20:20;94663.59;;;37.04;25.95
6680;BME280;3376;42.664;23.346;2023-07-13T12:22:47;94658.38;;;37.11;25.65
6680;BME280;3376;42.664;23.346;2023-07-13T12:25:15;94642.63;;;37.01;26.50
6680;BME280;3376;42.664;23.346;2023-07-13T12:27:46;94645.00;;;37.15;26.69
6680;BME280;3376;42.664;23.346;2023-07-13T12:30:28;94647.59;;;37.11;27.42
6680;BME280;3376;42.664;23.346;2023-07-13T12:32:58;94646.25;;;37.17;26.68
6680;BME280;3376;42.664;23.346;2023-07-13T12:35:28;94639.47;;;37.11;26.80
6680;BME280;3376;42.664;23.346;2023-07-13T12:37:59;94617.22;;;36.90;27.42
6680;BME280;3376;42.664;23.346;2023-07-13T12:40:30;94629.91;;;36.90;28.25
6680;BME280;3376;42.664;23.346;2023-07-13T12:43:01;94623.94;;;36.96;27.97
6680;BME280;3376;42.664;23.346;2023-07-13T12:45:29;94618.66;;;37.00;28.28
6680;BME280;3376;42.664;23.346;2023-07-13T12:48:06;94602.31;;;37.08;28.38
6680;BME280;3376;42.664;23.346;2023-07-13T12:50:41;94606.97;;;36.96;28.81
6680;BME280;3376;42.664;23.346;2023-07-13T12:53:13;94610.44;;;36.84;28.45
6680;BME280;3376;42.664;23.346;2023-07-13T12:55:42;94602.41;;;36.63;28.75
6680;BME280;3376;42.664;23.346;2023-07-13T12:58:18;94612.41;;;36.39;30.73
6680;BME280;3376;42.664;23.346;2023-07-13T13:00:49;94614.78;;;36.08;30.31
6680;BME280;3376;42.664;23.346;2023-07-13T13:03:23;94615.19;;;35.98;30.62
6680;BME280;3376;42.664;23.346;2023-07-13T13:05:57;94616.84;;;35.90;30.85
6680;BME280;3376;42.664;23.346;2023-07-13T13:08:25;94609.34;;;35.75;30.74
6680;BME280;3376;42.664;23.346;2023-07-13T13:10:52;94596.44;;;35.81;30.86
6680;BME280;3376;42.664;23.346;2023-07-13T13:13:21;94601.13;;;35.92;29.72
6680;BME280;3376;42.664;23.346;2023-07-13T13:15:47;94595.44;;;36.06;29.91
6680;BME280;3376;42.664;23.346;2023-07-13T13:18:16;94594.22;;;36.15;30.06
6680;BME280;3376;42.664;23.346;2023-07-13T13:20:43;94600.88;;;36.30;30.34
6680;BME280;3376;42.664;23.346;2023-07-13T13:23:13;94593.69;;;36.22;30.17